sensor_id;sensor_type;location;lat;lon;timestamp;temperature;humidity
27870;DHT22;15225;50.730;4.244;2024-02-23T08:12:40;6.40;42.60
27870;DHT22;15225;50.730;4.244;2024-02-23T08:15:07;6.40;46.30
27870;DHT22;15225;50.730;4.244;2024-02-23T08:17:33;6.60;42.70
27870;DHT22;15225;50.730;4.244;2024-02-23T08:19:58;7.10;18.30
27870;DHT22;15225;50.730;4.244;2024-02-23T08:22:24;7.40;10.40
27870;DHT22;15225;50.730;4.244;2024-02-23T17:32:44;7.90;1.00
27870;DHT22;15225;50.730;4.244;2024-02-23T17:35:10;8.00;1.00
27870;DHT22;15225;50.730;4.244;2024-02-23T17:37:37;8.50;1.00
27870;DHT22;15225;50.730;4.244;2024-02-23T17:40:03;9.30;99.90
27870;DHT22;15225;50.730;4.244;2024-02-23T17:42:29;10.00;1.00
27870;DHT22;15225;50.730;4.244;2024-02-23T17:44:54;10.50;99.90
27870;DHT22;15225;50.730;4.244;2024-02-23T17:47:20;10.70;1.00
27870;DHT22;15225;50.730;4.244;2024-02-23T17:49:46;10.80;1.00
27870;DHT22;15225;50.730;4.244;2024-02-23T17:52:13;10.80;1.00
27870;DHT22;15225;50.730;4.244;2024-02-23T17:54:39;10.80;22.40
27870;DHT22;15225;50.730;4.244;2024-02-23T17:57:05;10.60;99.90
27870;DHT22;15225;50.730;4.244;2024-02-23T17:59:30;10.50;99.90
27870;DHT22;15225;50.730;4.244;2024-02-23T18:01:57;10.30;96.50
27870;DHT22;15225;50.730;4.244;2024-02-23T18:04:22;10.20;99.90
27870;DHT22;15225;50.730;4.244;2024-02-23T18:06:49;10.20;99.90
27870;DHT22;15225;50.730;4.244;2024-02-23T18:09:20;10.20;99.90
27870;DHT22;15225;50.730;4.244;2024-02-23T18:11:45;10.10;99.90
27870;DHT22;15225;50.730;4.244;2024-02-23T18:14:15;10.20;99.90
27870;DHT22;15225;50.730;4.244;2024-02-23T18:16:43;10.20;99.90
27870;DHT22;15225;50.730;4.244;2024-02-23T18:19:09;10.20;99.90
27870;DHT22;15225;50.730;4.244;2024-02-23T18:21:35;10.20;99.90
27870;DHT22;15225;50.730;4.244;2024-02-23T18:24:01;10.20;99.90
27870;DHT22;15225;50.730;4.244;2024-02-23T18:26:27;10.20;99.90
27870;DHT22;15225;50.730;4.244;2024-02-23T18:28:53;10.60;99.90
27870;DHT22;15225;50.730;4.244;2024-02-23T18:31:19;10.50;99.90
27870;DHT22;15225;50.730;4.244;2024-02-23T18:33:46;10.30;99.90
27870;DHT22;15225;50.730;4.244;2024-02-23T18:36:11;10.30;99.90
27870;DHT22;15225;50.730;4.244;2024-02-23T18:38:44;10.30;99.90
27870;DHT22;15225;50.730;4.244;2024-02-23T18:41:11;9.90;99.90
27870;DHT22;15225;50.730;4.244;2024-02-23T18:43:37;9.70;1.00
27870;DHT22;15225;50.730;4.244;2024-02-23T18:46:07;8.90;1.00
27870;DHT22;15225;50.730;4.244;2024-02-23T18:48:33;8.70;1.00
27870;DHT22;15225;50.730;4.244;2024-02-23T18:51:02;8.80;1.00
27870;DHT22;15225;50.730;4.244;2024-02-23T18:53:28;9.00;1.00
27870;DHT22;15225;50.730;4.244;2024-02-23T18:55:54;9.00;1.00
27870;DHT22;15225;50.730;4.244;2024-02-23T18:58:19;9.00;1.00
27870;DHT22;15225;50.730;4.244;2024-02-23T19:00:45;9.20;1.00
27870;DHT22;15225;50.730;4.244;2024-02-23T19:03:11;9.00;1.00
27870;DHT22;15225;50.730;4.244;2024-02-23T19:05:38;9.00;1.00
27870;DHT22;15225;50.730;4.244;2024-02-23T19:08:05;9.00;1.00
27870;DHT22;15225;50.730;4.244;2024-02-23T19:10:32;9.00;1.00
27870;DHT22;15225;50.730;4.244;2024-02-23T19:12:58;8.80;1.00
27870;DHT22;15225;50.730;4.244;2024-02-23T19:15:24;8.80;1.00
27870;DHT22;15225;50.730;4.244;2024-02-23T19:17:50;8.60;1.00
27870;DHT22;15225;50.730;4.244;2024-02-23T19:20:16;8.60;1.00
27870;DHT22;15225;50.730;4.244;2024-02-23T19:22:42;8.60;1.00
27870;DHT22;15225;50.730;4.244;2024-02-23T19:25:09;8.60;1.00
27870;DHT22;15225;50.730;4.244;2024-02-23T19:27:44;8.50;1.00
27870;DHT22;15225;50.730;4.244;2024-02-23T19:30:10;8.10;1.00
27870;DHT22;15225;50.730;4.244;2024-02-23T19:32:40;8.10;1.00
27870;DHT22;15225;50.730;4.244;2024-02-23T19:35:05;8.00;1.00
27870;DHT22;15225;50.730;4.244;2024-02-23T19:37:31;8.20;1.00
27870;DHT22;15225;50.730;4.244;2024-02-23T19:39:58;8.20;1.00
27870;DHT22;15225;50.730;4.244;2024-02-23T19:42:24;8.10;1.00
27870;DHT22;15225;50.730;4.244;2024-02-23T19:44:50;8.30;1.00
27870;DHT22;15225;50.730;4.244;2024-02-23T19:47:16;8.40;1.00
27870;DHT22;15225;50.730;4.244;2024-02-23T19:49:41;8.50;1.00
27870;DHT22;15225;50.730;4.244;2024-02-23T19:52:07;8.50;1.00
27870;DHT22;15225;50.730;4.244;2024-02-23T19:54:35;8.50;1.00
27870;DHT22;15225;50.730;4.244;2024-02-23T19:57:02;8.50;1.00
27870;DHT22;15225;50.730;4.244;2024-02-23T19:59:31;8.50;1.00
27870;DHT22;15225;50.730;4.244;2024-02-23T20:02:04;8.70;1.00
27870;DHT22;15225;50.730;4.244;2024-02-23T20:04:40;8.80;1.00
27870;DHT22;15225;50.730;4.244;2024-02-23T20:07:06;8.90;1.00
27870;DHT22;15225;50.730;4.244;2024-02-23T20:09:38;9.00;1.00
27870;DHT22;15225;50.730;4.244;2024-02-23T20:12:05;8.90;1.00
27870;DHT22;15225;50.730;4.244;2024-02-23T20:14:31;8.80;1.00
27870;DHT22;15225;50.730;4.244;2024-02-23T20:16:57;8.90;1.00
27870;DHT22;15225;50.730;4.244;2024-02-23T20:19:23;8.90;1.00
27870;DHT22;15225;50.730;4.244;2024-02-23T20:21:49;8.80;1.00
27870;DHT22;15225;50.730;4.244;2024-02-23T20:24:14;8.70;1.00
27870;DHT22;15225;50.730;4.244;2024-02-23T20:26:40;8.50;1.00
27870;DHT22;15225;50.730;4.244;2024-02-23T20:29:07;8.40;1.00
27870;DHT22;15225;50.730;4.244;2024-02-23T20:31:33;8.70;1.00
27870;DHT22;15225;50.730;4.244;2024-02-23T20:34:04;8.80;1.00
27870;DHT22;15225;50.730;4.244;2024-02-23T20:36:33;8.70;1.00
27870;DHT22;15225;50.730;4.244;2024-02-23T20:38:58;8.70;1.00
27870;DHT22;15225;50.730;4.244;2024-02-23T20:41:24;8.80;1.00
27870;DHT22;15225;50.730;4.244;2024-02-23T20:43:53;8.80;1.00
27870;DHT22;15225;50.730;4.244;2024-02-23T20:46:22;8.70;1.00
27870;DHT22;15225;50.730;4.244;2024-02-23T20:48:49;8.80;1.00
27870;DHT22;15225;50.730;4.244;2024-02-23T20:51:14;8.90;1.00
27870;DHT22;15225;50.730;4.244;2024-02-23T20:53:40;8.80;1.00
27870;DHT22;15225;50.730;4.244;2024-02-23T20:56:06;8.50;1.00
27870;DHT22;15225;50.730;4.244;2024-02-23T20:58:35;8.60;1.00
27870;DHT22;15225;50.730;4.244;2024-02-23T21:01:01;8.70;1.00
27870;DHT22;15225;50.730;4.244;2024-02-23T21:03:30;8.70;1.00
27870;DHT22;15225;50.730;4.244;2024-02-23T21:05:55;8.70;1.00
27870;DHT22;15225;50.730;4.244;2024-02-23T21:08:21;8.60;1.00
27870;DHT22;15225;50.730;4.244;2024-02-23T21:10:46;8.50;1.00
27870;DHT22;15225;50.730;4.244;2024-02-23T21:13:13;8.50;1.00
27870;DHT22;15225;50.730;4.244;2024-02-23T21:15:38;8.50;1.00
27870;DHT22;15225;50.730;4.244;2024-02-23T21:18:04;8.50;1.00
27870;DHT22;15225;50.730;4.244;2024-02-23T21:20:30;8.70;1.00
27870;DHT22;15225;50.730;4.244;2024-02-23T21:22:56;8.70;1.00
27870;DHT22;15225;50.730;4.244;2024-02-23T21:25:21;8.60;1.00
27870;DHT22;15225;50.730;4.244;2024-02-23T21:27:47;8.70;1.00
27870;DHT22;15225;50.730;4.244;2024-02-23T21:30:13;8.60;1.00
27870;DHT22;15225;50.730;4.244;2024-02-23T21:32:38;8.70;1.00
27870;DHT22;15225;50.730;4.244;2024-02-23T21:35:05;8.80;1.00
27870;DHT22;15225;50.730;4.244;2024-02-23T21:37:31;8.80;1.00
27870;DHT22;15225;50.730;4.244;2024-02-23T21:39:57;8.60;1.00
27870;DHT22;15225;50.730;4.244;2024-02-23T21:42:23;8.70;1.00
27870;DHT22;15225;50.730;4.244;2024-02-23T21:44:48;8.80;1.00
27870;DHT22;15225;50.730;4.244;2024-02-23T21:47:14;9.00;1.00
27870;DHT22;15225;50.730;4.244;2024-02-23T21:49:39;8.90;1.00
27870;DHT22;15225;50.730;4.244;2024-02-23T21:52:05;9.00;99.90
27870;DHT22;15225;50.730;4.244;2024-02-23T21:54:32;9.00;99.90
27870;DHT22;15225;50.730;4.244;2024-02-23T21:56:58;8.90;1.00
